sensor_id;sensor_type;location;lat;lon;timestamp;P1;durP1;ratioP1;P2;durP2;ratioP2
68479;SDS011;55469;48.934;12.050;2023-07-29T00:02:01;3.13;;;2.78;;
68479;SDS011;55469;48.934;12.050;2023-07-29T00:04:27;3.22;;;2.92;;
68479;SDS011;55469;48.934;12.050;2023-07-29T00:06:53;3.65;;;3.28;;
68479;SDS011;55469;48.934;12.050;2023-07-29T00:09:19;3.05;;;2.60;;
68479;SDS011;55469;48.934;12.050;2023-07-29T00:11:44;2.80;;;2.42;;
68479;SDS011;55469;48.934;12.050;2023-07-29T00:14:10;4.13;;;3.00;;
68479;SDS011;55469;48.934;12.050;2023-07-29T00:16:36;2.88;;;2.60;;
68479;SDS011;55469;48.934;12.050;2023-07-29T00:19:02;3.28;;;2.88;;
68479;SDS011;55469;48.934;12.050;2023-07-29T00:21:28;3.33;;;2.92;;
68479;SDS011;55469;48.934;12.050;2023-07-29T00:23:53;3.30;;;2.80;;
68479;SDS011;55469;48.934;12.050;2023-07-29T00:26:23;3.08;;;2.70;;
68479;SDS011;55469;48.934;12.050;2023-07-29T00:28:51;5.18;;;2.90;;
68479;SDS011;55469;48.934;12.050;2023-07-29T00:31:16;3.05;;;2.67;;
68479;SDS011;55469;48.934;12.050;2023-07-29T00:33:42;4.47;;;3.15;;
68479;SDS011;55469;48.934;12.050;2023-07-29T00:36:08;4.63;;;3.20;;
68479;SDS011;55469;48.934;12.050;2023-07-29T00:38:34;4.05;;;3.10;;
68479;SDS011;55469;48.934;12.050;2023-07-29T00:41:00;5.97;;;2.90;;
68479;SDS011;55469;48.934;12.050;2023-07-29T00:43:28;3.08;;;2.75;;
68479;SDS011;55469;48.934;12.050;2023-07-29T00:45:54;4.95;;;3.63;;
68479;SDS011;55469;48.934;12.050;2023-07-29T00:48:22;5.75;;;3.15;;
68479;SDS011;55469;48.934;12.050;2023-07-29T00:50:49;3.40;;;3.10;;
68479;SDS011;55469;48.934;12.050;2023-07-29T00:53:15;4.53;;;3.13;;
68479;SDS011;55469;48.934;12.050;2023-07-29T00:55:41;4.05;;;3.60;;
68479;SDS011;55469;48.934;12.050;2023-07-29T00:58:08;4.05;;;3.65;;
68479;SDS011;55469;48.934;12.050;2023-07-29T01:00:33;4.25;;;3.85;;
68479;SDS011;55469;48.934;12.050;2023-07-29T01:02:59;5.82;;;4.63;;
68479;SDS011;55469;48.934;12.050;2023-07-29T01:05:27;4.97;;;3.58;;
68479;SDS011;55469;48.934;12.050;2023-07-29T01:08:14;4.78;;;4.05;;
68479;SDS011;55469;48.934;12.050;2023-07-29T01:10:54;4.40;;;4.00;;
68479;SDS011;55469;48.934;12.050;2023-07-29T01:16:04;5.13;;;4.13;;
68479;SDS011;55469;48.934;12.050;2023-07-29T01:18:42;6.07;;;4.38;;
68479;SDS011;55469;48.934;12.050;2023-07-29T01:21:12;4.40;;;3.97;;
68479;SDS011;55469;48.934;12.050;2023-07-29T01:23:39;4.93;;;4.22;;
68479;SDS011;55469;48.934;12.050;2023-07-29T01:26:05;5.32;;;4.55;;
68479;SDS011;55469;48.934;12.050;2023-07-29T01:28:30;4.78;;;3.90;;
68479;SDS011;55469;48.934;12.050;2023-07-29T01:31:01;5.53;;;4.68;;
68479;SDS011;55469;48.934;12.050;2023-07-29T01:33:35;5.38;;;4.57;;
68479;SDS011;55469;48.934;12.050;2023-07-29T01:36:13;7.13;;;4.38;;
68479;SDS011;55469;48.934;12.050;2023-07-29T01:38:45;4.70;;;4.30;;
68479;SDS011;55469;48.934;12.050;2023-07-29T01:41:12;5.25;;;4.53;;
68479;SDS011;55469;48.934;12.050;2023-07-29T01:43:39;5.88;;;4.68;;
68479;SDS011;55469;48.934;12.050;2023-07-29T01:46:12;4.97;;;4.20;;
68479;SDS011;55469;48.934;12.050;2023-07-29T01:48:39;5.97;;;5.03;;
68479;SDS011;55469;48.934;12.050;2023-07-29T01:51:05;8.02;;;4.20;;
68479;SDS011;55469;48.934;12.050;2023-07-29T01:53:32;5.57;;;4.18;;
68479;SDS011;55469;48.934;12.050;2023-07-29T01:55:58;5.95;;;4.90;;
68479;SDS011;55469;48.934;12.050;2023-07-29T01:58:24;6.00;;;4.95;;
68479;SDS011;55469;48.934;12.050;2023-07-29T02:00:50;5.30;;;4.10;;
68479;SDS011;55469;48.934;12.050;2023-07-29T02:03:16;4.75;;;4.00;;
68479;SDS011;55469;48.934;12.050;2023-07-29T02:05:44;4.60;;;4.20;;
68479;SDS011;55469;48.934;12.050;2023-07-29T02:08:10;5.20;;;4.63;;
68479;SDS011;55469;48.934;12.050;2023-07-29T02:10:36;5.20;;;4.25;;
68479;SDS011;55469;48.934;12.050;2023-07-29T02:13:02;4.50;;;3.97;;
68479;SDS011;55469;48.934;12.050;2023-07-29T02:15:29;7.15;;;4.30;;
68479;SDS011;55469;48.934;12.050;2023-07-29T02:17:54;4.88;;;4.03;;
68479;SDS011;55469;48.934;12.050;2023-07-29T02:20:20;6.82;;;4.10;;
68479;SDS011;55469;48.934;12.050;2023-07-29T02:22:46;4.70;;;3.97;;
68479;SDS011;55469;48.934;12.050;2023-07-29T02:25:13;4.45;;;3.67;;
68479;SDS011;55469;48.934;12.050;2023-07-29T02:27:39;5.05;;;3.80;;
68479;SDS011;55469;48.934;12.050;2023-07-29T02:30:05;4.95;;;4.10;;
68479;SDS011;55469;48.934;12.050;2023-07-29T02:32:31;4.03;;;3.65;;
68479;SDS011;55469;48.934;12.050;2023-07-29T02:34:57;4.65;;;3.50;;
68479;SDS011;55469;48.934;12.050;2023-07-29T02:37:23;4.82;;;3.72;;
68479;SDS011;55469;48.934;12.050;2023-07-29T02:39:49;4.50;;;3.78;;
68479;SDS011;55469;48.934;12.050;2023-07-29T02:42:14;4.45;;;3.60;;
68479;SDS011;55469;48.934;12.050;2023-07-29T02:44:40;4.75;;;4.20;;
68479;SDS011;55469;48.934;12.050;2023-07-29T02:47:06;6.63;;;3.90;;
68479;SDS011;55469;48.934;12.050;2023-07-29T02:49:33;5.50;;;4.05;;
68479;SDS011;55469;48.934;12.050;2023-07-29T02:51:58;4.28;;;3.78;;
68479;SDS011;55469;48.934;12.050;2023-07-29T02:54:24;4.40;;;3.90;;
68479;SDS011;55469;48.934;12.050;2023-07-29T02:56:50;4.25;;;3.83;;
68479;SDS011;55469;48.934;12.050;2023-07-29T02:59:16;4.30;;;3.90;;
68479;SDS011;55469;48.934;12.050;2023-07-29T03:01:42;4.30;;;3.90;;
68479;SDS011;55469;48.934;12.050;2023-07-29T03:04:07;4.45;;;3.92;;
68479;SDS011;55469;48.934;12.050;2023-07-29T03:06:33;5.18;;;3.80;;
68479;SDS011;55469;48.934;12.050;2023-07-29T03:08:59;4.15;;;3.63;;
68479;SDS011;55469;48.934;12.050;2023-07-29T03:11:24;4.93;;;3.90;;
68479;SDS011;55469;48.934;12.050;2023-07-29T03:13:50;3.70;;;3.40;;
68479;SDS011;55469;48.934;12.050;2023-07-29T03:16:16;5.50;;;4.00;;
68479;SDS011;55469;48.934;12.050;2023-07-29T03:18:43;4.32;;;3.80;;
68479;SDS011;55469;48.934;12.050;2023-07-29T03:21:09;4.40;;;4.00;;
68479;SDS011;55469;48.934;12.050;2023-07-29T03:23:36;3.67;;;3.10;;
68479;SDS011;55469;48.934;12.050;2023-07-29T03:26:03;3.75;;;3.45;;
68479;SDS011;55469;48.934;12.050;2023-07-29T03:28:35;6.25;;;3.92;;
68479;SDS011;55469;48.934;12.050;2023-07-29T03:31:04;4.70;;;3.60;;
68479;SDS011;55469;48.934;12.050;2023-07-29T03:33:29;4.68;;;3.60;;
68479;SDS011;55469;48.934;12.050;2023-07-29T03:35:55;7.22;;;3.55;;
68479;SDS011;55469;48.934;12.050;2023-07-29T03:38:21;4.32;;;3.28;;
68479;SDS011;55469;48.934;12.050;2023-07-29T03:40:46;3.78;;;3.28;;
68479;SDS011;55469;48.934;12.050;2023-07-29T03:43:12;6.47;;;3.50;;
68479;SDS011;55469;48.934;12.050;2023-07-29T03:45:38;4.43;;;3.28;;
68479;SDS011;55469;48.934;12.050;2023-07-29T03:48:05;4.10;;;3.65;;
68479;SDS011;55469;48.934;12.050;2023-07-29T03:50:32;3.70;;;3.33;;
68479;SDS011;55469;48.934;12.050;2023-07-29T03:53:02;4.88;;;3.20;;
68479;SDS011;55469;48.934;12.050;2023-07-29T03:55:29;3.85;;;3.45;;
68479;SDS011;55469;48.934;12.050;2023-07-29T03:57:59;4.28;;;3.88;;
68479;SDS011;55469;48.934;12.050;2023-07-29T04:00:25;4.85;;;3.80;;
68479;SDS011;55469;48.934;12.050;2023-07-29T04:02:52;3.92;;;3.53;;
68479;SDS011;55469;48.934;12.050;2023-07-29T04:05:17;6.55;;;4.30;;
68479;SDS011;55469;48.934;12.050;2023-07-29T04:07:43;6.25;;;4.68;;
68479;SDS011;55469;48.934;12.050;2023-07-29T04:10:09;5.95;;;4.22;;
68479;SDS011;55469;48.934;12.050;2023-07-29T04:12:36;5.07;;;4.47;;
68479;SDS011;55469;48.934;12.050;2023-07-29T04:15:01;5.35;;;4.85;;
68479;SDS011;55469;48.934;12.050;2023-07-29T04:17:27;5.53;;;4.80;;
68479;SDS011;55469;48.934;12.050;2023-07-29T04:19:53;5.00;;;4.50;;
68479;SDS011;55469;48.934;12.050;2023-07-29T04:22:19;4.20;;;3.80;;
68479;SDS011;55469;48.934;12.050;2023-07-29T04:24:45;5.65;;;4.95;;
68479;SDS011;55469;48.934;12.050;2023-07-29T04:27:11;5.82;;;4.72;;
68479;SDS011;55469;48.934;12.050;2023-07-29T04:29:37;7.68;;;5.20;;
68479;SDS011;55469;48.934;12.050;2023-07-29T04:32:03;5.30;;;4.80;;
68479;SDS011;55469;48.934;12.050;2023-07-29T04:34:29;6.07;;;5.32;;
68479;SDS011;55469;48.934;12.050;2023-07-29T04:36:56;6.70;;;5.38;;
68479;SDS011;55469;48.934;12.050;2023-07-29T04:39:21;6.50;;;4.63;;
68479;SDS011;55469;48.934;12.050;2023-07-29T04:41:47;5.88;;;4.82;;
68479;SDS011;55469;48.934;12.050;2023-07-29T04:44:13;5.15;;;4.28;;
68479;SDS011;55469;48.934;12.050;2023-07-29T04:46:38;5.57;;;4.35;;
68479;SDS011;55469;48.934;12.050;2023-07-29T04:49:04;5.38;;;4.28;;
68479;SDS011;55469;48.934;12.050;2023-07-29T04:51:30;5.13;;;4.63;;
68479;SDS011;55469;48.934;12.050;2023-07-29T04:53:57;5.47;;;4.00;;
68479;SDS011;55469;48.934;12.050;2023-07-29T04:56:23;5.15;;;4.00;;
68479;SDS011;55469;48.934;12.050;2023-07-29T04:58:49;4.50;;;4.10;;
68479;SDS011;55469;48.934;12.050;2023-07-29T05:01:15;4.72;;;3.70;;
68479;SDS011;55469;48.934;12.050;2023-07-29T05:03:40;4.55;;;3.80;;
68479;SDS011;55469;48.934;12.050;2023-07-29T05:06:06;3.80;;;3.47;;
68479;SDS011;55469;48.934;12.050;2023-07-29T05:08:32;3.75;;;3.15;;
68479;SDS011;55469;48.934;12.050;2023-07-29T05:10:58;4.93;;;3.78;;
68479;SDS011;55469;48.934;12.050;2023-07-29T05:13:23;3.38;;;3.08;;
68479;SDS011;55469;48.934;12.050;2023-07-29T05:15:49;3.83;;;3.20;;
68479;SDS011;55469;48.934;12.050;2023-07-29T05:18:16;4.70;;;3.42;;
68479;SDS011;55469;48.934;12.050;2023-07-29T05:20:42;4.03;;;3.03;;
68479;SDS011;55469;48.934;12.050;2023-07-29T05:23:08;3.58;;;2.80;;
68479;SDS011;55469;48.934;12.050;2023-07-29T05:25:33;7.53;;;3.17;;
68479;SDS011;55469;48.934;12.050;2023-07-29T05:28:02;3.08;;;2.63;;
68479;SDS011;55469;48.934;12.050;2023-07-29T05:30:29;4.10;;;3.05;;
68479;SDS011;55469;48.934;12.050;2023-07-29T05:32:58;3.67;;;2.83;;
68479;SDS011;55469;48.934;12.050;2023-07-29T05:35:25;2.67;;;2.47;;
68479;SDS011;55469;48.934;12.050;2023-07-29T05:37:50;3.22;;;2.92;;
68479;SDS011;55469;48.934;12.050;2023-07-29T05:40:16;2.80;;;2.60;;
68479;SDS011;55469;48.934;12.050;2023-07-29T05:42:42;4.00;;;2.70;;
68479;SDS011;55469;48.934;12.050;2023-07-29T05:45:09;3.00;;;2.67;;
68479;SDS011;55469;48.934;12.050;2023-07-29T05:47:35;3.20;;;2.55;;
68479;SDS011;55469;48.934;12.050;2023-07-29T05:50:01;2.95;;;2.65;;
68479;SDS011;55469;48.934;12.050;2023-07-29T05:52:29;2.72;;;2.53;;
68479;SDS011;55469;48.934;12.050;2023-07-29T05:54:56;3.42;;;2.40;;
68479;SDS011;55469;48.934;12.050;2023-07-29T05:57:21;3.03;;;2.70;;
68479;SDS011;55469;48.934;12.050;2023-07-29T05:59:47;3.97;;;2.50;;
68479;SDS011;55469;48.934;12.050;2023-07-29T06:02:13;3.80;;;2.65;;
68479;SDS011;55469;48.934;12.050;2023-07-29T06:04:39;2.55;;;2.35;;
68479;SDS011;55469;48.934;12.050;2023-07-29T06:07:05;2.92;;;2.53;;
68479;SDS011;55469;48.934;12.050;2023-07-29T06:09:31;2.42;;;2.22;;
68479;SDS011;55469;48.934;12.050;2023-07-29T06:11:57;2.55;;;2.35;;
68479;SDS011;55469;48.934;12.050;2023-07-29T06:14:22;4.28;;;2.75;;
68479;SDS011;55469;48.934;12.050;2023-07-29T06:16:49;4.10;;;2.65;;
68479;SDS011;55469;48.934;12.050;2023-07-29T06:19:14;5.53;;;2.55;;
68479;SDS011;55469;48.934;12.050;2023-07-29T06:21:40;2.63;;;2.42;;
68479;SDS011;55469;48.934;12.050;2023-07-29T06:24:06;2.83;;;2.10;;
68479;SDS011;55469;48.934;12.050;2023-07-29T06:26:31;2.42;;;2.22;;
68479;SDS011;55469;48.934;12.050;2023-07-29T06:28:57;2.83;;;2.40;;
68479;SDS011;55469;48.934;12.050;2023-07-29T06:31:23;2.90;;;2.40;;
68479;SDS011;55469;48.934;12.050;2023-07-29T06:33:49;3.00;;;2.40;;
68479;SDS011;55469;48.934;12.050;2023-07-29T06:36:14;2.90;;;2.20;;
68479;SDS011;55469;48.934;12.050;2023-07-29T06:38:40;3.13;;;2.47;;
68479;SDS011;55469;48.934;12.050;2023-07-29T06:41:06;2.50;;;2.30;;
68479;SDS011;55469;48.934;12.050;2023-07-29T06:43:32;3.40;;;2.40;;
68479;SDS011;55469;48.934;12.050;2023-07-29T06:45:58;3.25;;;2.42;;
68479;SDS011;55469;48.934;12.050;2023-07-29T06:48:24;2.35;;;2.15;;
68479;SDS011;55469;48.934;12.050;2023-07-29T06:50:49;2.75;;;2.45;;
68479;SDS011;55469;48.934;12.050;2023-07-29T06:53:15;3.00;;;2.70;;
68479;SDS011;55469;48.934;12.050;2023-07-29T06:55:41;3.25;;;2.10;;
68479;SDS011;55469;48.934;12.050;2023-07-29T06:58:08;3.33;;;2.30;;
68479;SDS011;55469;48.934;12.050;2023-07-29T07:00:35;2.63;;;2.17;;
68479;SDS011;55469;48.934;12.050;2023-07-29T07:03:00;2.20;;;2.00;;
68479;SDS011;55469;48.934;12.050;2023-07-29T07:05:26;3.35;;;2.17;;
68479;SDS011;55469;48.934;12.050;2023-07-29T07:07:52;2.70;;;2.40;;
68479;SDS011;55469;48.934;12.050;2023-07-29T07:10:18;2.63;;;2.30;;
68479;SDS011;55469;48.934;12.050;2023-07-29T07:12:44;2.47;;;2.25;;
68479;SDS011;55469;48.934;12.050;2023-07-29T07:15:10;2.70;;;2.33;;
68479;SDS011;55469;48.934;12.050;2023-07-29T07:17:36;5.70;;;2.30;;
68479;SDS011;55469;48.934;12.050;2023-07-29T07:20:01;2.20;;;1.92;;
68479;SDS011;55469;48.934;12.050;2023-07-29T07:22:28;3.15;;;2.10;;
68479;SDS011;55469;48.934;12.050;2023-07-29T07:24:54;2.35;;;2.10;;
68479;SDS011;55469;48.934;12.050;2023-07-29T07:27:20;2.58;;;2.13;;
68479;SDS011;55469;48.934;12.050;2023-07-29T07:29:45;3.50;;;2.33;;
68479;SDS011;55469;48.934;12.050;2023-07-29T07:32:11;2.60;;;2.10;;
68479;SDS011;55469;48.934;12.050;2023-07-29T07:34:37;2.80;;;2.08;;
68479;SDS011;55469;48.934;12.050;2023-07-29T07:37:02;2.92;;;2.10;;
68479;SDS011;55469;48.934;12.050;2023-07-29T07:39:29;2.47;;;2.05;;
68479;SDS011;55469;48.934;12.050;2023-07-29T07:41:56;3.55;;;2.15;;
68479;SDS011;55469;48.934;12.050;2023-07-29T07:44:21;3.42;;;2.30;;
68479;SDS011;55469;48.934;12.050;2023-07-29T07:46:47;2.28;;;2.08;;
68479;SDS011;55469;48.934;12.050;2023-07-29T07:49:13;2.28;;;2.08;;
68479;SDS011;55469;48.934;12.050;2023-07-29T07:51:39;2.75;;;2.30;;
68479;SDS011;55469;48.934;12.050;2023-07-29T07:54:05;2.75;;;2.22;;
68479;SDS011;55469;48.934;12.050;2023-07-29T07:56:30;3.75;;;2.30;;
68479;SDS011;55469;48.934;12.050;2023-07-29T07:58:56;2.22;;;2.03;;
68479;SDS011;55469;48.934;12.050;2023-07-29T08:01:22;2.95;;;1.90;;
68479;SDS011;55469;48.934;12.050;2023-07-29T08:03:47;3.72;;;2.30;;
68479;SDS011;55469;48.934;12.050;2023-07-29T08:06:13;3.20;;;2.35;;
68479;SDS011;55469;48.934;12.050;2023-07-29T08:08:39;3.60;;;2.42;;
68479;SDS011;55469;48.934;12.050;2023-07-29T08:11:05;3.40;;;2.47;;
68479;SDS011;55469;48.934;12.050;2023-07-29T08:13:31;3.53;;;2.30;;
68479;SDS011;55469;48.934;12.050;2023-07-29T08:15:56;3.20;;;2.42;;
68479;SDS011;55469;48.934;12.050;2023-07-29T08:18:23;8.43;;;2.60;;
68479;SDS011;55469;48.934;12.050;2023-07-29T08:20:52;4.22;;;2.90;;
68479;SDS011;55469;48.934;12.050;2023-07-29T08:23:24;5.75;;;2.83;;
68479;SDS011;55469;48.934;12.050;2023-07-29T08:25:51;5.60;;;2.97;;
68479;SDS011;55469;48.934;12.050;2023-07-29T08:28:18;4.93;;;3.10;;
68479;SDS011;55469;48.934;12.050;2023-07-29T08:30:44;6.22;;;2.90;;
68479;SDS011;55469;48.934;12.050;2023-07-29T08:33:10;3.75;;;2.67;;
68479;SDS011;55469;48.934;12.050;2023-07-29T08:35:36;5.15;;;2.75;;
68479;SDS011;55469;48.934;12.050;2023-07-29T08:38:02;3.92;;;2.85;;
68479;SDS011;55469;48.934;12.050;2023-07-29T08:40:29;5.53;;;3.08;;
68479;SDS011;55469;48.934;12.050;2023-07-29T08:42:57;3.30;;;2.42;;
68479;SDS011;55469;48.934;12.050;2023-07-29T08:45:29;5.40;;;2.85;;
68479;SDS011;55469;48.934;12.050;2023-07-29T08:47:59;5.28;;;2.85;;
68479;SDS011;55469;48.934;12.050;2023-07-29T08:50:32;4.88;;;2.92;;
68479;SDS011;55469;48.934;12.050;2023-07-29T08:53:00;3.45;;;2.50;;
68479;SDS011;55469;48.934;12.050;2023-07-29T08:55:30;4.30;;;2.50;;
68479;SDS011;55469;48.934;12.050;2023-07-29T08:57:57;2.92;;;2.10;;
68479;SDS011;55469;48.934;12.050;2023-07-29T09:00:25;2.95;;;2.17;;
68479;SDS011;55469;48.934;12.050;2023-07-29T09:02:51;3.95;;;2.40;;
68479;SDS011;55469;48.934;12.050;2023-07-29T09:05:17;3.33;;;2.40;;
68479;SDS011;55469;48.934;12.050;2023-07-29T09:07:43;3.25;;;2.38;;
68479;SDS011;55469;48.934;12.050;2023-07-29T09:10:11;3.95;;;2.20;;
68479;SDS011;55469;48.934;12.050;2023-07-29T09:12:38;4.28;;;2.30;;
68479;SDS011;55469;48.934;12.050;2023-07-29T09:15:05;2.80;;;2.33;;
68479;SDS011;55469;48.934;12.050;2023-07-29T09:17:32;3.50;;;2.22;;
68479;SDS011;55469;48.934;12.050;2023-07-29T09:19:58;2.72;;;1.88;;
68479;SDS011;55469;48.934;12.050;2023-07-29T09:22:24;2.75;;;2.20;;
68479;SDS011;55469;48.934;12.050;2023-07-29T09:24:52;2.85;;;2.10;;
68479;SDS011;55469;48.934;12.050;2023-07-29T09:27:28;3.13;;;2.15;;
68479;SDS011;55469;48.934;12.050;2023-07-29T09:29:56;2.97;;;2.10;;
68479;SDS011;55469;48.934;12.050;2023-07-29T09:32:23;2.40;;;2.10;;
68479;SDS011;55469;48.934;12.050;2023-07-29T09:34:50;2.47;;;2.05;;
68479;SDS011;55469;48.934;12.050;2023-07-29T09:37:17;2.50;;;2.30;;
68479;SDS011;55469;48.934;12.050;2023-07-29T09:39:46;7.47;;;2.30;;
68479;SDS011;55469;48.934;12.050;2023-07-29T09:42:20;3.35;;;2.42;;
68479;SDS011;55469;48.934;12.050;2023-07-29T09:44:48;2.78;;;2.00;;
68479;SDS011;55469;48.934;12.050;2023-07-29T09:47:22;2.65;;;1.98;;
68479;SDS011;55469;48.934;12.050;2023-07-29T09:52:16;3.30;;;2.13;;
68479;SDS011;55469;48.934;12.050;2023-07-29T09:54:45;3.22;;;2.28;;
68479;SDS011;55469;48.934;12.050;2023-07-29T09:57:16;3.25;;;2.00;;
68479;SDS011;55469;48.934;12.050;2023-07-29T09:59:43;5.72;;;2.13;;
68479;SDS011;55469;48.934;12.050;2023-07-29T10:02:19;2.40;;;2.20;;
68479;SDS011;55469;48.934;12.050;2023-07-29T10:04:46;3.38;;;2.40;;
68479;SDS011;55469;48.934;12.050;2023-07-29T10:07:12;3.80;;;2.50;;
68479;SDS011;55469;48.934;12.050;2023-07-29T10:09:39;3.05;;;2.30;;
68479;SDS011;55469;48.934;12.050;2023-07-29T10:12:05;3.45;;;2.45;;
68479;SDS011;55469;48.934;12.050;2023-07-29T10:14:33;3.00;;;2.13;;
68479;SDS011;55469;48.934;12.050;2023-07-29T10:16:59;3.63;;;2.20;;
68479;SDS011;55469;48.934;12.050;2023-07-29T10:19:25;2.88;;;2.25;;
68479;SDS011;55469;48.934;12.050;2023-07-29T10:21:52;4.47;;;2.33;;
68479;SDS011;55469;48.934;12.050;2023-07-29T10:24:22;2.92;;;2.35;;
68479;SDS011;55469;48.934;12.050;2023-07-29T10:26:57;3.10;;;2.43;;
68479;SDS011;55469;48.934;12.050;2023-07-29T10:29:25;3.63;;;2.30;;
68479;SDS011;55469;48.934;12.050;2023-07-29T10:31:57;4.75;;;2.40;;
68479;SDS011;55469;48.934;12.050;2023-07-29T10:34:28;2.22;;;1.95;;
68479;SDS011;55469;48.934;12.050;2023-07-29T10:36:56;3.30;;;2.25;;
68479;SDS011;55469;48.934;12.050;2023-07-29T10:39:26;3.17;;;2.00;;
68479;SDS011;55469;48.934;12.050;2023-07-29T10:41:55;3.03;;;2.00;;
68479;SDS011;55469;48.934;12.050;2023-07-29T10:49:56;2.63;;;2.15;;
68479;SDS011;55469;48.934;12.050;2023-07-29T10:52:30;3.30;;;2.00;;
68479;SDS011;55469;48.934;12.050;2023-07-29T10:54:59;2.78;;;2.00;;
68479;SDS011;55469;48.934;12.050;2023-07-29T10:57:33;2.47;;;1.98;;
68479;SDS011;55469;48.934;12.050;2023-07-29T11:00:03;4.97;;;2.22;;
68479;SDS011;55469;48.934;12.050;2023-07-29T11:02:36;2.55;;;2.13;;
68479;SDS011;55469;48.934;12.050;2023-07-29T11:05:07;2.60;;;2.33;;
68479;SDS011;55469;48.934;12.050;2023-07-29T11:07:45;2.45;;;2.25;;
68479;SDS011;55469;48.934;12.050;2023-07-29T11:10:12;3.03;;;2.38;;
68479;SDS011;55469;48.934;12.050;2023-07-29T11:17:50;3.65;;;2.15;;
68479;SDS011;55469;48.934;12.050;2023-07-29T11:20:25;2.50;;;2.20;;
68479;SDS011;55469;48.934;12.050;2023-07-29T11:22:57;3.47;;;2.42;;
68479;SDS011;55469;48.934;12.050;2023-07-29T11:25:25;2.97;;;2.40;;
68479;SDS011;55469;48.934;12.050;2023-07-29T11:27:54;2.85;;;2.47;;
68479;SDS011;55469;48.934;12.050;2023-07-29T11:30:22;2.65;;;2.40;;
68479;SDS011;55469;48.934;12.050;2023-07-29T11:32:56;3.10;;;2.33;;
68479;SDS011;55469;48.934;12.050;2023-07-29T11:35:23;3.20;;;2.50;;
68479;SDS011;55469;48.934;12.050;2023-07-29T11:37:50;2.90;;;2.38;;
68479;SDS011;55469;48.934;12.050;2023-07-29T11:40:21;2.47;;;2.28;;
68479;SDS011;55469;48.934;12.050;2023-07-29T11:42:49;2.97;;;2.30;;
68479;SDS011;55469;48.934;12.050;2023-07-29T11:45:16;4.03;;;2.30;;
68479;SDS011;55469;48.934;12.050;2023-07-29T11:47:43;2.47;;;2.28;;
68479;SDS011;55469;48.934;12.050;2023-07-29T11:50:10;2.40;;;2.20;;
68479;SDS011;55469;48.934;12.050;2023-07-29T11:52:42;2.60;;;2.30;;
68479;SDS011;55469;48.934;12.050;2023-07-29T11:55:11;2.30;;;2.10;;
68479;SDS011;55469;48.934;12.050;2023-07-29T11:57:39;3.67;;;2.10;;
68479;SDS011;55469;48.934;12.050;2023-07-29T12:00:07;2.17;;;1.95;;
68479;SDS011;55469;48.934;12.050;2023-07-29T12:02:38;2.00;;;1.80;;
68479;SDS011;55469;48.934;12.050;2023-07-29T12:05:06;2.70;;;2.33;;
68479;SDS011;55469;48.934;12.050;2023-07-29T12:07:35;3.47;;;2.28;;
68479;SDS011;55469;48.934;12.050;2023-07-29T12:10:03;2.65;;;2.17;;
68479;SDS011;55469;48.934;12.050;2023-07-29T12:12:29;2.58;;;1.85;;
68479;SDS011;55469;48.934;12.050;2023-07-29T12:14:55;2.58;;;1.95;;
68479;SDS011;55469;48.934;12.050;2023-07-29T12:17:21;2.47;;;2.28;;
68479;SDS011;55469;48.934;12.050;2023-07-29T12:19:47;2.30;;;2.10;;
68479;SDS011;55469;48.934;12.050;2023-07-29T12:22:17;3.03;;;1.88;;
68479;SDS011;55469;48.934;12.050;2023-07-29T12:24:44;2.08;;;1.80;;
68479;SDS011;55469;48.934;12.050;2023-07-29T12:27:11;2.83;;;2.10;;
68479;SDS011;55469;48.934;12.050;2023-07-29T12:29:42;1.92;;;1.80;;
68479;SDS011;55469;48.934;12.050;2023-07-29T12:32:09;3.08;;;2.17;;
68479;SDS011;55469;48.934;12.050;2023-07-29T12:34:36;3.03;;;2.10;;
68479;SDS011;55469;48.934;12.050;2023-07-29T12:37:04;4.28;;;2.05;;
68479;SDS011;55469;48.934;12.050;2023-07-29T12:39:32;3.15;;;1.90;;
68479;SDS011;55469;48.934;12.050;2023-07-29T12:42:00;2.10;;;1.60;;
68479;SDS011;55469;48.934;12.050;2023-07-29T12:44:32;2.13;;;1.92;;
68479;SDS011;55469;48.934;12.050;2023-07-29T12:47:00;2.10;;;1.92;;
68479;SDS011;55469;48.934;12.050;2023-07-29T12:49:28;1.77;;;1.67;;
68479;SDS011;55469;48.934;12.050;2023-07-29T12:51:55;2.40;;;2.08;;
68479;SDS011;55469;48.934;12.050;2023-07-29T12:54:24;2.00;;;1.80;;
68479;SDS011;55469;48.934;12.050;2023-07-29T12:56:50;2.10;;;1.90;;
68479;SDS011;55469;48.934;12.050;2023-07-29T12:59:16;2.10;;;1.60;;
68479;SDS011;55469;48.934;12.050;2023-07-29T13:01:42;2.15;;;1.60;;
68479;SDS011;55469;48.934;12.050;2023-07-29T13:04:09;1.92;;;1.73;;
68479;SDS011;55469;48.934;12.050;2023-07-29T13:06:35;1.90;;;1.70;;
68479;SDS011;55469;48.934;12.050;2023-07-29T13:09:01;1.90;;;1.70;;
68479;SDS011;55469;48.934;12.050;2023-07-29T13:11:26;2.58;;;1.65;;
68479;SDS011;55469;48.934;12.050;2023-07-29T13:13:52;1.58;;;1.48;;
68479;SDS011;55469;48.934;12.050;2023-07-29T13:16:18;1.83;;;1.63;;
68479;SDS011;55469;48.934;12.050;2023-07-29T13:18:43;2.17;;;1.70;;
68479;SDS011;55469;48.934;12.050;2023-07-29T13:21:09;1.65;;;1.55;;
68479;SDS011;55469;48.934;12.050;2023-07-29T13:23:35;1.58;;;1.48;;
68479;SDS011;55469;48.934;12.050;2023-07-29T13:26:01;1.75;;;1.45;;
68479;SDS011;55469;48.934;12.050;2023-07-29T13:28:27;1.52;;;1.25;;
68479;SDS011;55469;48.934;12.050;2023-07-29T13:30:53;1.73;;;1.52;;
68479;SDS011;55469;48.934;12.050;2023-07-29T13:33:18;1.73;;;1.30;;
68479;SDS011;55469;48.934;12.050;2023-07-29T13:35:44;1.80;;;1.38;;
68479;SDS011;55469;48.934;12.050;2023-07-29T13:38:10;3.30;;;1.63;;
68479;SDS011;55469;48.934;12.050;2023-07-29T13:40:36;1.75;;;1.40;;
68479;SDS011;55469;48.934;12.050;2023-07-29T13:43:02;2.92;;;1.40;;
68479;SDS011;55469;48.934;12.050;2023-07-29T13:45:27;2.70;;;1.45;;
68479;SDS011;55469;48.934;12.050;2023-07-29T13:47:53;1.77;;;1.40;;
68479;SDS011;55469;48.934;12.050;2023-07-29T13:50:19;1.45;;;1.35;;
68479;SDS011;55469;48.934;12.050;2023-07-29T13:52:45;2.95;;;1.60;;
68479;SDS011;55469;48.934;12.050;2023-07-29T13:55:10;1.40;;;1.30;;
68479;SDS011;55469;48.934;12.050;2023-07-29T13:57:36;2.08;;;1.40;;
68479;SDS011;55469;48.934;12.050;2023-07-29T14:00:04;2.00;;;1.60;;
68479;SDS011;55469;48.934;12.050;2023-07-29T14:02:31;1.45;;;1.35;;
68479;SDS011;55469;48.934;12.050;2023-07-29T14:04:57;2.20;;;1.48;;
68479;SDS011;55469;48.934;12.050;2023-07-29T14:07:22;2.15;;;1.50;;
68479;SDS011;55469;48.934;12.050;2023-07-29T14:09:48;2.25;;;1.30;;
68479;SDS011;55469;48.934;12.050;2023-07-29T14:12:14;1.98;;;1.50;;
68479;SDS011;55469;48.934;12.050;2023-07-29T14:14:43;2.80;;;1.40;;
68479;SDS011;55469;48.934;12.050;2023-07-29T14:17:09;1.67;;;1.58;;
68479;SDS011;55469;48.934;12.050;2023-07-29T14:19:35;1.48;;;1.38;;
68479;SDS011;55469;48.934;12.050;2023-07-29T14:22:02;2.03;;;1.45;;
68479;SDS011;55469;48.934;12.050;2023-07-29T14:24:27;2.63;;;1.40;;
68479;SDS011;55469;48.934;12.050;2023-07-29T14:26:53;1.98;;;1.52;;
68479;SDS011;55469;48.934;12.050;2023-07-29T14:29:19;1.90;;;1.45;;
68479;SDS011;55469;48.934;12.050;2023-07-29T14:31:45;1.73;;;1.40;;
68479;SDS011;55469;48.934;12.050;2023-07-29T14:34:10;1.60;;;1.50;;
68479;SDS011;55469;48.934;12.050;2023-07-29T14:36:36;1.50;;;1.40;;
68479;SDS011;55469;48.934;12.050;2023-07-29T14:39:02;2.42;;;1.50;;
68479;SDS011;55469;48.934;12.050;2023-07-29T14:41:28;2.30;;;1.60;;
68479;SDS011;55469;48.934;12.050;2023-07-29T14:43:55;1.70;;;1.40;;
68479;SDS011;55469;48.934;12.050;2023-07-29T14:46:20;1.77;;;1.48;;
68479;SDS011;55469;48.934;12.050;2023-07-29T14:48:46;2.83;;;1.50;;